sensor_id;sensor_type;location;lat;lon;timestamp;temperature;humidity
40255;DHT22;25973;52.368;4.940;2022-09-24T00:03:37;15.60;99.90
40255;DHT22;25973;52.368;4.940;2022-09-24T00:06:05;15.60;99.90
40255;DHT22;25973;52.368;4.940;2022-09-24T00:08:31;15.70;99.90
40255;DHT22;25973;52.368;4.940;2022-09-24T00:11:01;15.70;99.90
40255;DHT22;25973;52.368;4.940;2022-09-24T00:13:27;15.70;99.90
40255;DHT22;25973;52.368;4.940;2022-09-24T00:15:52;15.70;99.90
40255;DHT22;25973;52.368;4.940;2022-09-24T00:18:18;15.70;99.90
40255;DHT22;25973;52.368;4.940;2022-09-24T00:20:45;15.70;99.90
40255;DHT22;25973;52.368;4.940;2022-09-24T00:23:11;15.70;99.90
40255;DHT22;25973;52.368;4.940;2022-09-24T00:25:44;15.70;99.90
40255;DHT22;25973;52.368;4.940;2022-09-24T00:28:29;15.70;99.90
40255;DHT22;25973;52.368;4.940;2022-09-24T00:30:55;15.70;99.90
40255;DHT22;25973;52.368;4.940;2022-09-24T00:33:23;15.70;99.90
40255;DHT22;25973;52.368;4.940;2022-09-24T00:35:49;15.70;99.90
40255;DHT22;25973;52.368;4.940;2022-09-24T00:38:14;15.80;99.90
40255;DHT22;25973;52.368;4.940;2022-09-24T00:40:40;15.80;99.90
40255;DHT22;25973;52.368;4.940;2022-09-24T00:43:29;15.80;99.90
40255;DHT22;25973;52.368;4.940;2022-09-24T00:48:53;15.80;99.90
40255;DHT22;25973;52.368;4.940;2022-09-24T00:51:22;15.70;99.90
40255;DHT22;25973;52.368;4.940;2022-09-24T00:53:52;15.80;99.90
40255;DHT22;25973;52.368;4.940;2022-09-24T00:56:20;15.80;99.90
40255;DHT22;25973;52.368;4.940;2022-09-24T00:58:50;15.70;99.90
40255;DHT22;25973;52.368;4.940;2022-09-24T01:01:19;15.80;99.90
40255;DHT22;25973;52.368;4.940;2022-09-24T01:03:46;15.80;99.90
40255;DHT22;25973;52.368;4.940;2022-09-24T01:06:13;15.80;99.90
40255;DHT22;25973;52.368;4.940;2022-09-24T01:08:39;15.80;99.90
40255;DHT22;25973;52.368;4.940;2022-09-24T01:11:34;15.70;99.90
40255;DHT22;25973;52.368;4.940;2022-09-24T01:23:00;15.80;99.90
40255;DHT22;25973;52.368;4.940;2022-09-24T01:31:49;15.70;99.90
40255;DHT22;25973;52.368;4.940;2022-09-24T01:34:21;15.70;99.90
40255;DHT22;25973;52.368;4.940;2022-09-24T01:36:52;15.70;99.90
40255;DHT22;25973;52.368;4.940;2022-09-24T01:39:19;15.70;99.90
40255;DHT22;25973;52.368;4.940;2022-09-24T01:41:47;15.70;99.90
40255;DHT22;25973;52.368;4.940;2022-09-24T01:44:14;15.70;99.90
40255;DHT22;25973;52.368;4.940;2022-09-24T01:46:43;15.70;99.90
40255;DHT22;25973;52.368;4.940;2022-09-24T01:49:08;15.70;99.90
40255;DHT22;25973;52.368;4.940;2022-09-24T01:51:57;15.70;99.90
40255;DHT22;25973;52.368;4.940;2022-09-24T01:54:33;15.70;99.90
40255;DHT22;25973;52.368;4.940;2022-09-24T01:59:39;15.70;99.90
40255;DHT22;25973;52.368;4.940;2022-09-24T02:04:58;15.70;99.90
40255;DHT22;25973;52.368;4.940;2022-09-24T02:07:37;15.70;99.90
40255;DHT22;25973;52.368;4.940;2022-09-24T02:10:08;15.70;99.90
40255;DHT22;25973;52.368;4.940;2022-09-24T02:12:39;15.70;99.90
40255;DHT22;25973;52.368;4.940;2022-09-24T02:15:14;15.70;99.90
40255;DHT22;25973;52.368;4.940;2022-09-24T02:17:45;15.80;99.90
40255;DHT22;25973;52.368;4.940;2022-09-24T02:20:16;15.80;99.90
40255;DHT22;25973;52.368;4.940;2022-09-24T02:22:44;15.70;99.90
40255;DHT22;25973;52.368;4.940;2022-09-24T02:25:19;15.70;99.90
40255;DHT22;25973;52.368;4.940;2022-09-24T02:27:45;15.80;99.90
40255;DHT22;25973;52.368;4.940;2022-09-24T02:30:11;15.80;99.90
40255;DHT22;25973;52.368;4.940;2022-09-24T02:32:39;15.80;99.90
40255;DHT22;25973;52.368;4.940;2022-09-24T02:35:08;15.80;99.90
40255;DHT22;25973;52.368;4.940;2022-09-24T02:37:36;15.80;99.90
40255;DHT22;25973;52.368;4.940;2022-09-24T02:40:04;15.80;99.90
40255;DHT22;25973;52.368;4.940;2022-09-24T02:42:31;15.80;99.90
40255;DHT22;25973;52.368;4.940;2022-09-24T02:45:00;15.80;99.90
40255;DHT22;25973;52.368;4.940;2022-09-24T02:47:26;15.80;99.90
40255;DHT22;25973;52.368;4.940;2022-09-24T02:49:53;15.80;99.90
40255;DHT22;25973;52.368;4.940;2022-09-24T02:52:20;15.80;99.90
40255;DHT22;25973;52.368;4.940;2022-09-24T02:54:47;15.80;99.90
40255;DHT22;25973;52.368;4.940;2022-09-24T02:57:12;15.80;99.90
40255;DHT22;25973;52.368;4.940;2022-09-24T02:59:38;15.80;99.90
40255;DHT22;25973;52.368;4.940;2022-09-24T03:02:04;15.70;99.90
40255;DHT22;25973;52.368;4.940;2022-09-24T03:04:30;15.70;99.90
40255;DHT22;25973;52.368;4.940;2022-09-24T03:06:56;15.70;99.90
40255;DHT22;25973;52.368;4.940;2022-09-24T03:09:21;15.70;99.90
40255;DHT22;25973;52.368;4.940;2022-09-24T03:11:47;15.60;99.90
40255;DHT22;25973;52.368;4.940;2022-09-24T03:14:13;15.60;99.90
40255;DHT22;25973;52.368;4.940;2022-09-24T03:16:38;15.60;99.90
40255;DHT22;25973;52.368;4.940;2022-09-24T03:19:05;15.60;99.90
40255;DHT22;25973;52.368;4.940;2022-09-24T03:21:30;15.60;99.90
40255;DHT22;25973;52.368;4.940;2022-09-24T03:23:56;15.60;99.90
40255;DHT22;25973;52.368;4.940;2022-09-24T03:26:22;15.60;99.90
40255;DHT22;25973;52.368;4.940;2022-09-24T03:28:47;15.60;99.90
40255;DHT22;25973;52.368;4.940;2022-09-24T03:31:13;15.60;99.90
40255;DHT22;25973;52.368;4.940;2022-09-24T03:33:42;15.70;99.90
40255;DHT22;25973;52.368;4.940;2022-09-24T03:38:34;15.70;99.90
40255;DHT22;25973;52.368;4.940;2022-09-24T03:41:01;15.70;99.90
40255;DHT22;25973;52.368;4.940;2022-09-24T03:43:26;15.70;99.90
40255;DHT22;25973;52.368;4.940;2022-09-24T03:45:54;15.70;99.90
40255;DHT22;25973;52.368;4.940;2022-09-24T03:48:21;15.70;99.90
40255;DHT22;25973;52.368;4.940;2022-09-24T03:50:47;15.70;99.90
40255;DHT22;25973;52.368;4.940;2022-09-24T03:53:14;15.70;99.90
40255;DHT22;25973;52.368;4.940;2022-09-24T03:55:47;15.70;99.90
40255;DHT22;25973;52.368;4.940;2022-09-24T03:58:14;15.70;99.90
40255;DHT22;25973;52.368;4.940;2022-09-24T04:00:40;15.60;99.90
40255;DHT22;25973;52.368;4.940;2022-09-24T04:03:07;15.60;99.90
40255;DHT22;25973;52.368;4.940;2022-09-24T04:05:33;15.60;99.90
40255;DHT22;25973;52.368;4.940;2022-09-24T04:07:59;15.60;99.90
40255;DHT22;25973;52.368;4.940;2022-09-24T04:10:25;15.60;99.90
40255;DHT22;25973;52.368;4.940;2022-09-24T04:12:51;15.60;99.90
40255;DHT22;25973;52.368;4.940;2022-09-24T04:15:18;15.60;99.90
40255;DHT22;25973;52.368;4.940;2022-09-24T04:17:50;15.60;99.90
40255;DHT22;25973;52.368;4.940;2022-09-24T04:20:16;15.60;99.90
40255;DHT22;25973;52.368;4.940;2022-09-24T04:22:44;15.60;99.90
40255;DHT22;25973;52.368;4.940;2022-09-24T04:25:09;15.60;99.90
40255;DHT22;25973;52.368;4.940;2022-09-24T04:27:35;15.70;99.90
40255;DHT22;25973;52.368;4.940;2022-09-24T04:30:01;15.70;99.90
40255;DHT22;25973;52.368;4.940;2022-09-24T04:32:26;15.70;99.90
40255;DHT22;25973;52.368;4.940;2022-09-24T04:34:52;15.70;99.90
40255;DHT22;25973;52.368;4.940;2022-09-24T04:37:26;15.60;99.90
40255;DHT22;25973;52.368;4.940;2022-09-24T04:39:52;15.60;99.90
40255;DHT22;25973;52.368;4.940;2022-09-24T04:42:18;15.60;99.90
40255;DHT22;25973;52.368;4.940;2022-09-24T04:44:44;15.60;99.90
40255;DHT22;25973;52.368;4.940;2022-09-24T04:47:15;15.50;99.90
40255;DHT22;25973;52.368;4.940;2022-09-24T04:49:42;15.50;99.90
40255;DHT22;25973;52.368;4.940;2022-09-24T04:52:09;15.40;99.90
40255;DHT22;25973;52.368;4.940;2022-09-24T04:54:34;15.40;99.90
40255;DHT22;25973;52.368;4.940;2022-09-24T04:57:00;15.30;99.90
40255;DHT22;25973;52.368;4.940;2022-09-24T04:59:26;15.30;99.90
40255;DHT22;25973;52.368;4.940;2022-09-24T05:01:52;15.20;99.90
40255;DHT22;25973;52.368;4.940;2022-09-24T05:04:18;15.20;99.90
40255;DHT22;25973;52.368;4.940;2022-09-24T05:06:44;15.20;99.90
40255;DHT22;25973;52.368;4.940;2022-09-24T05:09:09;15.20;99.90
40255;DHT22;25973;52.368;4.940;2022-09-24T05:11:35;15.20;99.90
40255;DHT22;25973;52.368;4.940;2022-09-24T05:14:01;15.20;99.90
40255;DHT22;25973;52.368;4.940;2022-09-24T05:16:26;15.20;99.90
40255;DHT22;25973;52.368;4.940;2022-09-24T05:18:52;15.20;99.90
40255;DHT22;25973;52.368;4.940;2022-09-24T05:21:18;15.20;99.90
40255;DHT22;25973;52.368;4.940;2022-09-24T05:23:43;15.20;99.90
40255;DHT22;25973;52.368;4.940;2022-09-24T05:26:09;15.20;99.90
40255;DHT22;25973;52.368;4.940;2022-09-24T05:28:53;15.20;99.90
40255;DHT22;25973;52.368;4.940;2022-09-24T05:31:18;15.10;99.90
40255;DHT22;25973;52.368;4.940;2022-09-24T05:33:44;15.10;99.90
40255;DHT22;25973;52.368;4.940;2022-09-24T05:36:10;15.10;99.90
40255;DHT22;25973;52.368;4.940;2022-09-24T05:38:35;15.10;99.90
40255;DHT22;25973;52.368;4.940;2022-09-24T05:41:01;15.00;99.90
40255;DHT22;25973;52.368;4.940;2022-09-24T05:43:28;15.00;99.90
40255;DHT22;25973;52.368;4.940;2022-09-24T05:45:53;15.00;99.90
40255;DHT22;25973;52.368;4.940;2022-09-24T05:48:21;15.00;99.90
40255;DHT22;25973;52.368;4.940;2022-09-24T05:50:46;15.00;99.90
40255;DHT22;25973;52.368;4.940;2022-09-24T05:53:12;15.00;99.90
40255;DHT22;25973;52.368;4.940;2022-09-24T05:55:38;15.00;99.90
40255;DHT22;25973;52.368;4.940;2022-09-24T05:58:05;14.90;99.90
40255;DHT22;25973;52.368;4.940;2022-09-24T06:00:32;14.90;99.90
40255;DHT22;25973;52.368;4.940;2022-09-24T06:03:07;14.90;99.90
40255;DHT22;25973;52.368;4.940;2022-09-24T06:05:35;14.90;99.90
40255;DHT22;25973;52.368;4.940;2022-09-24T06:08:02;14.90;99.90
40255;DHT22;25973;52.368;4.940;2022-09-24T06:10:27;14.80;99.90
40255;DHT22;25973;52.368;4.940;2022-09-24T06:12:53;14.80;99.90
40255;DHT22;25973;52.368;4.940;2022-09-24T06:15:19;14.80;99.90
40255;DHT22;25973;52.368;4.940;2022-09-24T06:17:45;14.70;99.90
40255;DHT22;25973;52.368;4.940;2022-09-24T06:20:11;14.70;99.90
40255;DHT22;25973;52.368;4.940;2022-09-24T06:22:38;14.70;99.90
40255;DHT22;25973;52.368;4.940;2022-09-24T06:25:05;14.80;99.90
40255;DHT22;25973;52.368;4.940;2022-09-24T06:27:30;14.70;99.90
40255;DHT22;25973;52.368;4.940;2022-09-24T06:29:56;14.80;99.90
40255;DHT22;25973;52.368;4.940;2022-09-24T06:32:23;14.70;99.90
40255;DHT22;25973;52.368;4.940;2022-09-24T06:34:48;14.70;99.90
40255;DHT22;25973;52.368;4.940;2022-09-24T06:37:14;14.80;99.90
40255;DHT22;25973;52.368;4.940;2022-09-24T06:39:39;14.80;99.90
40255;DHT22;25973;52.368;4.940;2022-09-24T06:42:05;14.70;99.90
40255;DHT22;25973;52.368;4.940;2022-09-24T06:44:31;14.70;99.90
40255;DHT22;25973;52.368;4.940;2022-09-24T06:46:59;14.70;99.90
40255;DHT22;25973;52.368;4.940;2022-09-24T06:49:26;14.80;99.90
40255;DHT22;25973;52.368;4.940;2022-09-24T06:51:54;14.70;99.90
40255;DHT22;25973;52.368;4.940;2022-09-24T06:54:21;14.80;99.90
40255;DHT22;25973;52.368;4.940;2022-09-24T06:56:47;14.80;99.90
40255;DHT22;25973;52.368;4.940;2022-09-24T06:59:13;14.70;99.90
40255;DHT22;25973;52.368;4.940;2022-09-24T07:01:38;14.70;99.90
40255;DHT22;25973;52.368;4.940;2022-09-24T07:04:05;14.70;99.90
40255;DHT22;25973;52.368;4.940;2022-09-24T07:06:33;14.80;99.90
40255;DHT22;25973;52.368;4.940;2022-09-24T07:09:18;14.80;99.90
40255;DHT22;25973;52.368;4.940;2022-09-24T07:11:44;14.80;99.90
40255;DHT22;25973;52.368;4.940;2022-09-24T07:14:11;14.80;99.90
40255;DHT22;25973;52.368;4.940;2022-09-24T07:16:37;14.80;99.90
40255;DHT22;25973;52.368;4.940;2022-09-24T07:19:03;14.80;99.90
40255;DHT22;25973;52.368;4.940;2022-09-24T07:21:28;14.80;99.90
40255;DHT22;25973;52.368;4.940;2022-09-24T07:23:54;14.80;99.90
40255;DHT22;25973;52.368;4.940;2022-09-24T07:26:20;14.80;99.90
40255;DHT22;25973;52.368;4.940;2022-09-24T07:28:45;14.90;99.90
40255;DHT22;25973;52.368;4.940;2022-09-24T07:31:11;14.90;99.90
40255;DHT22;25973;52.368;4.940;2022-09-24T07:33:36;14.90;99.90
40255;DHT22;25973;52.368;4.940;2022-09-24T07:36:05;14.90;99.90
40255;DHT22;25973;52.368;4.940;2022-09-24T07:38:31;14.90;99.90
40255;DHT22;25973;52.368;4.940;2022-09-24T07:40:57;14.90;99.90
40255;DHT22;25973;52.368;4.940;2022-09-24T07:43:23;14.90;99.90
40255;DHT22;25973;52.368;4.940;2022-09-24T07:45:51;14.90;99.90
40255;DHT22;25973;52.368;4.940;2022-09-24T07:48:17;14.90;99.90
40255;DHT22;25973;52.368;4.940;2022-09-24T07:50:42;14.90;99.90
40255;DHT22;25973;52.368;4.940;2022-09-24T07:53:11;14.90;99.90
40255;DHT22;25973;52.368;4.940;2022-09-24T07:55:37;14.90;99.90
40255;DHT22;25973;52.368;4.940;2022-09-24T07:58:06;15.00;99.90
40255;DHT22;25973;52.368;4.940;2022-09-24T08:00:33;15.00;99.90
40255;DHT22;25973;52.368;4.940;2022-09-24T08:03:01;15.00;99.90
40255;DHT22;25973;52.368;4.940;2022-09-24T08:05:27;15.00;99.90
40255;DHT22;25973;52.368;4.940;2022-09-24T08:07:56;15.00;99.90
40255;DHT22;25973;52.368;4.940;2022-09-24T08:10:23;15.00;99.90
40255;DHT22;25973;52.368;4.940;2022-09-24T08:12:49;15.00;99.90
40255;DHT22;25973;52.368;4.940;2022-09-24T08:15:14;15.00;99.90
40255;DHT22;25973;52.368;4.940;2022-09-24T08:17:41;15.00;99.90
40255;DHT22;25973;52.368;4.940;2022-09-24T08:20:07;15.00;99.90
40255;DHT22;25973;52.368;4.940;2022-09-24T08:22:33;15.00;99.90
40255;DHT22;25973;52.368;4.940;2022-09-24T08:24:58;15.00;99.90
40255;DHT22;25973;52.368;4.940;2022-09-24T08:27:24;15.00;99.90
40255;DHT22;25973;52.368;4.940;2022-09-24T08:29:51;15.00;99.90
40255;DHT22;25973;52.368;4.940;2022-09-24T08:32:17;15.10;99.90
40255;DHT22;25973;52.368;4.940;2022-09-24T08:34:43;15.00;99.90
40255;DHT22;25973;52.368;4.940;2022-09-24T08:37:10;15.10;99.90
40255;DHT22;25973;52.368;4.940;2022-09-24T08:39:38;15.10;99.90
40255;DHT22;25973;52.368;4.940;2022-09-24T08:45:03;15.10;99.90
40255;DHT22;25973;52.368;4.940;2022-09-24T08:47:55;15.10;99.90
40255;DHT22;25973;52.368;4.940;2022-09-24T08:50:24;15.20;99.90
40255;DHT22;25973;52.368;4.940;2022-09-24T08:52:56;15.20;99.90
40255;DHT22;25973;52.368;4.940;2022-09-24T08:55:35;15.20;99.90
40255;DHT22;25973;52.368;4.940;2022-09-24T09:09:25;15.30;99.90
40255;DHT22;25973;52.368;4.940;2022-09-24T09:12:01;15.30;99.90
40255;DHT22;25973;52.368;4.940;2022-09-24T09:14:37;15.30;99.90
40255;DHT22;25973;52.368;4.940;2022-09-24T09:17:14;15.40;99.90
40255;DHT22;25973;52.368;4.940;2022-09-24T09:19:47;15.30;99.90
40255;DHT22;25973;52.368;4.940;2022-09-24T09:22:22;15.30;99.90
40255;DHT22;25973;52.368;4.940;2022-09-24T09:24:50;15.30;99.90
40255;DHT22;25973;52.368;4.940;2022-09-24T09:27:18;15.30;99.90
40255;DHT22;25973;52.368;4.940;2022-09-24T09:29:47;15.40;99.90
40255;DHT22;25973;52.368;4.940;2022-09-24T09:38:24;15.50;99.90
40255;DHT22;25973;52.368;4.940;2022-09-24T09:43:18;15.50;99.90
40255;DHT22;25973;52.368;4.940;2022-09-24T09:48:51;15.50;99.90
40255;DHT22;25973;52.368;4.940;2022-09-24T09:51:21;15.50;99.90
40255;DHT22;25973;52.368;4.940;2022-09-24T09:53:59;15.50;99.90
40255;DHT22;25973;52.368;4.940;2022-09-24T09:56:29;15.50;99.90
40255;DHT22;25973;52.368;4.940;2022-09-24T10:01:38;15.40;99.90
40255;DHT22;25973;52.368;4.940;2022-09-24T10:04:05;15.50;99.90
40255;DHT22;25973;52.368;4.940;2022-09-24T10:06:33;15.50;99.90
40255;DHT22;25973;52.368;4.940;2022-09-24T10:09:12;15.40;99.90
40255;DHT22;25973;52.368;4.940;2022-09-24T10:11:39;15.50;99.90
40255;DHT22;25973;52.368;4.940;2022-09-24T10:14:09;15.40;99.90
40255;DHT22;25973;52.368;4.940;2022-09-24T10:16:41;15.50;99.90
40255;DHT22;25973;52.368;4.940;2022-09-24T10:19:22;15.50;99.90
40255;DHT22;25973;52.368;4.940;2022-09-24T10:21:49;15.60;99.90
40255;DHT22;25973;52.368;4.940;2022-09-24T10:24:26;15.60;99.90
40255;DHT22;25973;52.368;4.940;2022-09-24T10:26:53;15.60;99.90
40255;DHT22;25973;52.368;4.940;2022-09-24T10:29:21;15.60;99.90
40255;DHT22;25973;52.368;4.940;2022-09-24T10:32:16;15.60;99.90
40255;DHT22;25973;52.368;4.940;2022-09-24T10:34:54;15.60;99.90
40255;DHT22;25973;52.368;4.940;2022-09-24T10:37:21;15.70;99.90
40255;DHT22;25973;52.368;4.940;2022-09-24T10:40:00;15.70;99.90
40255;DHT22;25973;52.368;4.940;2022-09-24T10:42:27;15.70;99.90
40255;DHT22;25973;52.368;4.940;2022-09-24T10:44:57;15.70;99.90
40255;DHT22;25973;52.368;4.940;2022-09-24T10:50:46;15.80;99.90
40255;DHT22;25973;52.368;4.940;2022-09-24T10:53:28;15.80;99.90
40255;DHT22;25973;52.368;4.940;2022-09-24T10:56:06;15.80;99.90
40255;DHT22;25973;52.368;4.940;2022-09-24T11:01:47;15.80;99.90
40255;DHT22;25973;52.368;4.940;2022-09-24T11:07:24;15.80;99.90
40255;DHT22;25973;52.368;4.940;2022-09-24T11:38:07;16.10;99.90
40255;DHT22;25973;52.368;4.940;2022-09-24T11:43:37;16.10;99.90
40255;DHT22;25973;52.368;4.940;2022-09-24T11:54:25;16.30;99.90
40255;DHT22;25973;52.368;4.940;2022-09-24T11:57:11;16.40;99.90
40255;DHT22;25973;52.368;4.940;2022-09-24T12:02:18;16.60;99.90
40255;DHT22;25973;52.368;4.940;2022-09-24T12:04:56;16.60;99.90
40255;DHT22;25973;52.368;4.940;2022-09-24T12:07:44;16.60;99.90
40255;DHT22;25973;52.368;4.940;2022-09-24T12:13:00;16.70;99.90
40255;DHT22;25973;52.368;4.940;2022-09-24T12:15:38;16.70;99.90
40255;DHT22;25973;52.368;4.940;2022-09-24T12:18:15;16.80;99.90
40255;DHT22;25973;52.368;4.940;2022-09-24T12:20:51;16.70;99.90
40255;DHT22;25973;52.368;4.940;2022-09-24T12:23:25;16.80;99.90
40255;DHT22;25973;52.368;4.940;2022-09-24T12:25:54;16.80;99.90
40255;DHT22;25973;52.368;4.940;2022-09-24T12:28:21;16.80;99.90
40255;DHT22;25973;52.368;4.940;2022-09-24T12:31:35;16.90;99.90
40255;DHT22;25973;52.368;4.940;2022-09-24T12:37:00;16.90;99.90
40255;DHT22;25973;52.368;4.940;2022-09-24T12:39:37;16.90;99.90
40255;DHT22;25973;52.368;4.940;2022-09-24T12:42:09;16.90;99.90
40255;DHT22;25973;52.368;4.940;2022-09-24T12:44:45;16.90;99.90
40255;DHT22;25973;52.368;4.940;2022-09-24T12:47:26;16.90;99.90
40255;DHT22;25973;52.368;4.940;2022-09-24T12:50:03;17.00;99.90
40255;DHT22;25973;52.368;4.940;2022-09-24T12:52:41;17.00;99.90
40255;DHT22;25973;52.368;4.940;2022-09-24T12:57:53;17.10;99.90
40255;DHT22;25973;52.368;4.940;2022-09-24T13:02:58;17.10;99.90
40255;DHT22;25973;52.368;4.940;2022-09-24T13:05:26;17.20;99.90
40255;DHT22;25973;52.368;4.940;2022-09-24T13:10:29;17.20;99.90
40255;DHT22;25973;52.368;4.940;2022-09-24T13:12:57;17.20;99.90
40255;DHT22;25973;52.368;4.940;2022-09-24T13:15:38;17.20;99.90
40255;DHT22;25973;52.368;4.940;2022-09-24T13:20:37;17.30;99.90
40255;DHT22;25973;52.368;4.940;2022-09-24T13:23:29;17.30;99.90
40255;DHT22;25973;52.368;4.940;2022-09-24T13:26:05;17.30;99.90
40255;DHT22;25973;52.368;4.940;2022-09-24T13:28:32;17.30;99.90
40255;DHT22;25973;52.368;4.940;2022-09-24T13:31:30;17.20;99.90
40255;DHT22;25973;52.368;4.940;2022-09-24T13:39:44;17.30;99.90
40255;DHT22;25973;52.368;4.940;2022-09-24T13:44:54;17.30;99.90
40255;DHT22;25973;52.368;4.940;2022-09-24T13:50:14;17.20;99.90
40255;DHT22;25973;52.368;4.940;2022-09-24T13:55:22;17.20;99.90
40255;DHT22;25973;52.368;4.940;2022-09-24T13:57:48;17.20;99.90
40255;DHT22;25973;52.368;4.940;2022-09-24T14:00:28;17.30;99.90
40255;DHT22;25973;52.368;4.940;2022-09-24T14:05:37;17.30;99.90
40255;DHT22;25973;52.368;4.940;2022-09-24T14:08:07;17.30;99.90
40255;DHT22;25973;52.368;4.940;2022-09-24T14:10:35;17.30;99.90
40255;DHT22;25973;52.368;4.940;2022-09-24T14:13:22;17.20;99.90
40255;DHT22;25973;52.368;4.940;2022-09-24T14:18:19;17.10;99.90
40255;DHT22;25973;52.368;4.940;2022-09-24T14:21:00;17.10;99.90
40255;DHT22;25973;52.368;4.940;2022-09-24T14:23:37;17.00;99.90
40255;DHT22;25973;52.368;4.940;2022-09-24T14:26:04;17.00;99.90
40255;DHT22;25973;52.368;4.940;2022-09-24T14:28:30;16.90;99.90
40255;DHT22;25973;52.368;4.940;2022-09-24T14:30:58;16.90;99.90
40255;DHT22;25973;52.368;4.940;2022-09-24T14:33:30;16.80;99.90
40255;DHT22;25973;52.368;4.940;2022-09-24T14:35:58;16.80;99.90
40255;DHT22;25973;52.368;4.940;2022-09-24T14:41:06;16.80;99.90
40255;DHT22;25973;52.368;4.940;2022-09-24T14:43:42;16.70;99.90
40255;DHT22;25973;52.368;4.940;2022-09-24T14:46:35;16.70;99.90
40255;DHT22;25973;52.368;4.940;2022-09-24T14:52:23;16.70;99.90
40255;DHT22;25973;52.368;4.940;2022-09-24T14:55:20;16.70;99.90
40255;DHT22;25973;52.368;4.940;2022-09-24T14:57:49;16.70;99.90
40255;DHT22;25973;52.368;4.940;2022-09-24T15:05:16;16.60;99.90
40255;DHT22;25973;52.368;4.940;2022-09-24T15:07:47;16.60;99.90
40255;DHT22;25973;52.368;4.940;2022-09-24T15:10:20;16.60;99.90
40255;DHT22;25973;52.368;4.940;2022-09-24T15:12:48;16.50;99.90
40255;DHT22;25973;52.368;4.940;2022-09-24T15:17:44;16.50;99.90
40255;DHT22;25973;52.368;4.940;2022-09-24T15:20:11;16.50;99.90
40255;DHT22;25973;52.368;4.940;2022-09-24T15:22:37;16.50;99.90
40255;DHT22;25973;52.368;4.940;2022-09-24T15:25:03;16.50;99.90
40255;DHT22;25973;52.368;4.940;2022-09-24T15:27:36;16.50;99.90
40255;DHT22;25973;52.368;4.940;2022-09-24T15:30:03;16.50;99.90
40255;DHT22;25973;52.368;4.940;2022-09-24T15:32:34;16.50;99.90
40255;DHT22;25973;52.368;4.940;2022-09-24T15:35:01;16.50;99.90
40255;DHT22;25973;52.368;4.940;2022-09-24T15:37:32;16.50;99.90
40255;DHT22;25973;52.368;4.940;2022-09-24T15:40:04;16.50;99.90
40255;DHT22;25973;52.368;4.940;2022-09-24T15:42:30;16.60;99.90
40255;DHT22;25973;52.368;4.940;2022-09-24T15:44:56;16.60;99.90
40255;DHT22;25973;52.368;4.940;2022-09-24T15:47:22;16.60;99.90
40255;DHT22;25973;52.368;4.940;2022-09-24T15:49:48;16.60;99.90
40255;DHT22;25973;52.368;4.940;2022-09-24T15:52:17;16.60;99.90
40255;DHT22;25973;52.368;4.940;2022-09-24T15:54:50;16.60;99.90
40255;DHT22;25973;52.368;4.940;2022-09-24T15:57:16;16.60;99.90
40255;DHT22;25973;52.368;4.940;2022-09-24T15:59:42;16.60;99.90
40255;DHT22;25973;52.368;4.940;2022-09-24T16:02:26;16.60;99.90
40255;DHT22;25973;52.368;4.940;2022-09-24T16:04:53;16.50;99.90
40255;DHT22;25973;52.368;4.940;2022-09-24T16:07:18;16.50;99.90
40255;DHT22;25973;52.368;4.940;2022-09-24T16:09:44;16.50;99.90
40255;DHT22;25973;52.368;4.940;2022-09-24T16:12:16;16.50;99.90
40255;DHT22;25973;52.368;4.940;2022-09-24T16:14:43;16.40;99.90
40255;DHT22;25973;52.368;4.940;2022-09-24T16:17:09;16.40;99.90
40255;DHT22;25973;52.368;4.940;2022-09-24T16:19:35;16.40;99.90
40255;DHT22;25973;52.368;4.940;2022-09-24T16:22:01;16.50;99.90
40255;DHT22;25973;52.368;4.940;2022-09-24T16:24:31;16.40;99.90
40255;DHT22;25973;52.368;4.940;2022-09-24T16:26:56;16.50;99.90
40255;DHT22;25973;52.368;4.940;2022-09-24T16:29:23;16.40;99.90
40255;DHT22;25973;52.368;4.940;2022-09-24T16:31:49;16.40;99.90
40255;DHT22;25973;52.368;4.940;2022-09-24T16:34:14;16.30;99.90
40255;DHT22;25973;52.368;4.940;2022-09-24T16:36:40;16.30;99.90
40255;DHT22;25973;52.368;4.940;2022-09-24T16:39:05;16.30;99.90
40255;DHT22;25973;52.368;4.940;2022-09-24T16:41:31;16.30;99.90
40255;DHT22;25973;52.368;4.940;2022-09-24T16:43:59;16.30;99.90
40255;DHT22;25973;52.368;4.940;2022-09-24T16:46:26;16.30;99.90
40255;DHT22;25973;52.368;4.940;2022-09-24T16:48:52;16.30;99.90
40255;DHT22;25973;52.368;4.940;2022-09-24T16:51:18;16.20;99.90
40255;DHT22;25973;52.368;4.940;2022-09-24T16:53:43;16.20;99.90
40255;DHT22;25973;52.368;4.940;2022-09-24T16:56:12;16.20;99.90
40255;DHT22;25973;52.368;4.940;2022-09-24T16:58:41;16.10;99.90
40255;DHT22;25973;52.368;4.940;2022-09-24T17:01:09;16.10;99.90
40255;DHT22;25973;52.368;4.940;2022-09-24T17:03:35;16.00;99.90
40255;DHT22;25973;52.368;4.940;2022-09-24T17:06:02;16.00;99.90
40255;DHT22;25973;52.368;4.940;2022-09-24T17:08:30;16.00;99.90
40255;DHT22;25973;52.368;4.940;2022-09-24T17:11:15;16.00;99.90
40255;DHT22;25973;52.368;4.940;2022-09-24T17:13:41;15.90;99.90
40255;DHT22;25973;52.368;4.940;2022-09-24T17:16:06;15.90;99.90
40255;DHT22;25973;52.368;4.940;2022-09-24T17:18:32;15.80;99.90
40255;DHT22;25973;52.368;4.940;2022-09-24T17:21:02;15.90;99.90
40255;DHT22;25973;52.368;4.940;2022-09-24T17:23:28;15.80;99.90
40255;DHT22;25973;52.368;4.940;2022-09-24T17:26:05;15.70;99.90
40255;DHT22;25973;52.368;4.940;2022-09-24T17:28:33;15.70;99.90
40255;DHT22;25973;52.368;4.940;2022-09-24T17:30:59;15.70;99.90
40255;DHT22;25973;52.368;4.940;2022-09-24T17:33:25;15.60;99.90
40255;DHT22;25973;52.368;4.940;2022-09-24T17:35:54;15.60;99.90
40255;DHT22;25973;52.368;4.940;2022-09-24T17:38:20;15.60;99.90
40255;DHT22;25973;52.368;4.940;2022-09-24T17:41:15;15.60;99.90
40255;DHT22;25973;52.368;4.940;2022-09-24T17:43:41;15.50;99.90
40255;DHT22;25973;52.368;4.940;2022-09-24T17:46:16;15.50;99.90
40255;DHT22;25973;52.368;4.940;2022-09-24T17:48:44;15.40;99.90
40255;DHT22;25973;52.368;4.940;2022-09-24T17:51:13;15.40;99.90
40255;DHT22;25973;52.368;4.940;2022-09-24T17:53:39;15.40;99.90
40255;DHT22;25973;52.368;4.940;2022-09-24T17:56:06;15.40;99.90
40255;DHT22;25973;52.368;4.940;2022-09-24T17:58:43;15.30;99.90
40255;DHT22;25973;52.368;4.940;2022-09-24T18:01:20;15.30;99.90
40255;DHT22;25973;52.368;4.940;2022-09-24T18:03:47;15.30;99.90
40255;DHT22;25973;52.368;4.940;2022-09-24T18:06:16;15.20;99.90
40255;DHT22;25973;52.368;4.940;2022-09-24T18:08:43;15.20;99.90
40255;DHT22;25973;52.368;4.940;2022-09-24T18:11:18;15.20;99.90
40255;DHT22;25973;52.368;4.940;2022-09-24T18:13:44;15.10;99.90
40255;DHT22;25973;52.368;4.940;2022-09-24T18:16:15;15.10;99.90
40255;DHT22;25973;52.368;4.940;2022-09-24T18:18:42;15.10;99.90
40255;DHT22;25973;52.368;4.940;2022-09-24T18:21:09;15.00;99.90